createdAt,value
2019-05-15T00:02:20.419Z,52.47
2019-05-15T00:04:50.530Z,51.83
2019-05-15T00:07:20.550Z,52.11
2019-05-15T00:09:50.653Z,51.65
2019-05-15T00:12:20.694Z,50.70
2019-05-15T00:14:50.786Z,50.91
2019-05-15T00:17:20.825Z,51.23
2019-05-15T00:19:50.929Z,50.76
2019-05-15T00:22:20.973Z,50.56
2019-05-15T00:24:51.076Z,50.78
2019-05-15T00:27:21.120Z,50.79
2019-05-15T00:29:51.214Z,50.93
2019-05-15T00:32:21.264Z,50.61
2019-05-15T00:34:51.352Z,51.44
2019-05-15T00:37:21.387Z,52.03
2019-05-15T00:39:51.477Z,52.45
2019-05-15T00:42:21.509Z,52.43
2019-05-15T00:44:51.608Z,52.55
2019-05-15T00:47:21.635Z,52.53
2019-05-15T00:49:51.743Z,52.51
2019-05-15T00:52:21.877Z,53.23
2019-05-15T00:54:51.960Z,53.12
2019-05-15T00:57:21.998Z,52.57
2019-05-15T00:59:52.101Z,52.57
2019-05-15T01:02:22.144Z,52.34
2019-05-15T01:04:53.602Z,52.45
2019-05-15T01:07:23.666Z,52.54
2019-05-15T01:09:53.771Z,53.62
2019-05-15T01:12:23.809Z,54.66
2019-05-15T01:14:54.084Z,54.76
2019-05-15T01:17:24.126Z,57.37
2019-05-15T01:19:54.231Z,57.65
2019-05-15T01:22:24.262Z,59.71
2019-05-15T01:24:54.349Z,62.51
2019-05-15T01:27:25.828Z,64.69
2019-05-15T01:29:58.041Z,64.21
2019-05-15T01:32:28.400Z,65.03
2019-05-15T01:34:58.734Z,64.60
2019-05-15T01:37:28.862Z,64.53
2019-05-15T01:39:58.959Z,65.27
2019-05-15T01:42:29.035Z,66.02
2019-05-15T01:44:59.141Z,65.35
2019-05-15T01:47:29.210Z,65.96
2019-05-15T01:49:59.314Z,66.31
2019-05-15T01:52:29.406Z,66.34
2019-05-15T01:54:59.497Z,66.08
2019-05-15T01:57:29.566Z,65.02
2019-05-15T02:00:00.986Z,66.30
2019-05-15T02:02:31.097Z,65.31
2019-05-15T02:05:01.500Z,65.97
2019-05-15T02:07:31.582Z,68.11
2019-05-15T02:10:01.706Z,66.48
2019-05-15T02:12:31.765Z,68.09
2019-05-15T02:15:01.870Z,66.88
2019-05-15T02:17:31.930Z,67.87
2019-05-15T02:20:02.029Z,66.36
2019-05-15T02:22:32.091Z,67.09
2019-05-15T02:25:02.492Z,67.52
2019-05-15T02:27:32.587Z,68.10
2019-05-15T02:30:21.061Z,68.35
2019-05-15T02:32:34.448Z,69.48
2019-05-15T02:35:09.535Z,69.10
2019-05-15T02:37:41.169Z,70.00
2019-05-15T02:40:10.682Z,70.41
2019-05-15T02:42:40.892Z,72.26
2019-05-15T02:45:10.995Z,70.56
2019-05-15T02:47:41.083Z,70.85
2019-05-15T02:50:11.514Z,71.91
2019-05-15T02:52:45.137Z,71.74
2019-05-15T02:55:13.424Z,73.35
2019-05-15T02:57:43.494Z,74.02
2019-05-15T03:00:35.301Z,73.02
2019-05-15T03:02:45.683Z,74.79
2019-05-15T03:05:15.894Z,74.13
2019-05-15T03:07:49.073Z,73.80
2019-05-15T03:10:19.999Z,75.60
2019-05-15T03:12:49.707Z,74.75
2019-05-15T03:15:19.827Z,75.32
2019-05-15T03:17:49.886Z,76.64
2019-05-15T03:20:19.994Z,76.89
2019-05-15T03:22:50.057Z,77.95
2019-05-15T03:25:20.160Z,78.44
2019-05-15T03:27:50.235Z,79.49
2019-05-15T03:30:22.012Z,78.89
2019-05-15T03:33:01.530Z,79.76
2019-05-15T03:35:32.163Z,80.33
2019-05-15T03:37:59.899Z,81.02
2019-05-15T03:40:30.150Z,80.72
2019-05-15T03:43:00.207Z,81.61
2019-05-15T03:45:30.309Z,81.09
2019-05-15T03:48:00.393Z,81.22
2019-05-15T03:50:30.499Z,81.38
2019-05-15T03:53:00.598Z,81.78
2019-05-15T03:55:30.676Z,82.81
2019-05-15T03:58:00.753Z,83.58
2019-05-15T04:00:30.879Z,83.27
2019-05-15T04:03:00.948Z,83.68
2019-05-15T04:05:31.033Z,83.51
2019-05-15T04:08:01.110Z,83.91
2019-05-15T04:10:31.211Z,83.28
2019-05-15T04:13:01.285Z,83.35
2019-05-15T04:15:31.748Z,83.78
2019-05-15T04:18:01.811Z,82.97
2019-05-15T04:20:31.905Z,83.05
2019-05-15T04:23:02.083Z,83.22
2019-05-15T04:25:33.059Z,83.99
2019-05-15T04:28:04.859Z,83.65
2019-05-15T04:30:34.952Z,83.48
2019-05-15T04:33:05.028Z,83.57
2019-05-15T04:35:35.141Z,84.19
2019-05-15T04:38:05.223Z,84.23
2019-05-15T04:40:35.312Z,84.11
2019-05-15T04:43:05.372Z,85.25
2019-05-15T04:45:35.692Z,85.19
2019-05-15T04:48:10.146Z,85.31
2019-05-15T04:50:40.093Z,85.19
2019-05-15T04:53:11.226Z,85.08
2019-05-15T04:55:41.376Z,85.49
2019-05-15T04:58:11.441Z,85.64
2019-05-15T05:00:55.148Z,86.47
2019-05-15T05:03:28.866Z,86.20
2019-05-15T05:05:59.121Z,86.15
2019-05-15T05:08:29.358Z,86.92
2019-05-15T05:10:59.530Z,86.30
2019-05-15T05:13:29.611Z,86.57
2019-05-15T05:15:59.726Z,86.55
2019-05-15T05:18:30.052Z,87.26
2019-05-15T05:21:00.172Z,86.89
2019-05-15T05:23:30.448Z,86.93
2019-05-15T05:26:00.526Z,87.01
2019-05-15T05:28:30.605Z,86.82
2019-05-15T05:31:00.684Z,87.26
2019-05-15T05:33:30.763Z,87.62
2019-05-15T05:36:01.555Z,87.36
2019-05-15T05:38:31.630Z,87.29
2019-05-15T05:41:01.719Z,87.65
2019-05-15T05:43:32.089Z,88.36
2019-05-15T05:46:02.166Z,88.03
2019-05-15T05:48:32.222Z,87.92
2019-05-15T05:51:02.321Z,87.58
2019-05-15T05:53:32.374Z,87.94
2019-05-15T05:56:02.463Z,88.10
2019-05-15T05:58:32.533Z,88.26
2019-05-15T06:01:02.628Z,88.23
2019-05-15T06:03:32.684Z,88.09
2019-05-15T06:06:02.800Z,88.48
2019-05-15T06:08:32.851Z,88.52
2019-05-15T06:11:03.011Z,89.10
2019-05-15T06:13:33.084Z,88.74
2019-05-15T06:16:03.192Z,88.68
2019-05-15T06:18:33.265Z,88.15
2019-05-15T06:21:03.367Z,89.18
2019-05-15T06:23:35.725Z,88.58
2019-05-15T06:26:05.227Z,88.75
2019-05-15T06:28:35.312Z,89.19
2019-05-15T06:31:05.392Z,89.18
2019-05-15T06:33:35.463Z,88.79
2019-05-15T06:36:05.562Z,89.16
2019-05-15T06:38:35.637Z,89.09
2019-05-15T06:41:05.736Z,88.83
2019-05-15T06:43:35.997Z,88.96
2019-05-15T06:46:06.118Z,88.87
2019-05-15T06:48:38.014Z,89.01
2019-05-15T06:51:08.816Z,88.76
2019-05-15T06:53:39.232Z,88.67
2019-05-15T06:56:09.332Z,89.19
2019-05-15T06:58:39.409Z,89.00
2019-05-15T07:01:09.511Z,88.72
2019-05-15T07:03:39.677Z,88.39
2019-05-15T07:06:09.820Z,88.57
2019-05-15T07:08:39.912Z,88.83
2019-05-15T07:11:09.983Z,87.98
2019-05-15T07:13:40.038Z,88.10
2019-05-15T07:16:10.184Z,88.05
2019-05-15T07:18:40.240Z,87.98
2019-05-15T07:21:10.711Z,88.03
2019-05-15T07:23:40.906Z,87.61
2019-05-15T07:26:10.989Z,87.82
2019-05-15T07:28:41.063Z,88.16
2019-05-15T07:31:11.765Z,87.45
2019-05-15T07:33:43.922Z,87.85
2019-05-15T07:36:13.829Z,88.05
2019-05-15T07:38:43.910Z,88.13
2019-05-15T07:41:13.996Z,88.29
2019-05-15T07:43:44.065Z,88.44
2019-05-15T07:46:14.173Z,88.29
2019-05-15T07:48:44.246Z,88.73
2019-05-15T07:51:14.343Z,88.29
2019-05-15T07:53:44.409Z,89.13
2019-05-15T07:56:14.508Z,88.76
2019-05-15T07:58:44.610Z,88.99
2019-05-15T08:01:14.690Z,89.22
2019-05-15T08:03:56.635Z,89.57
2019-05-15T08:06:17.991Z,89.16
2019-05-15T08:08:48.818Z,89.22
2019-05-15T08:11:23.947Z,89.23
2019-05-15T08:13:50.843Z,89.18
2019-05-15T08:16:20.929Z,89.51
2019-05-15T08:18:51.004Z,89.25
2019-05-15T08:21:21.093Z,89.09
2019-05-15T08:23:51.167Z,88.63
2019-05-15T08:26:21.243Z,89.23
2019-05-15T08:28:51.321Z,89.11
2019-05-15T08:31:21.418Z,89.08
2019-05-15T08:33:51.492Z,89.09
2019-05-15T08:36:21.585Z,88.69
2019-05-15T08:38:51.646Z,88.65
2019-05-15T08:41:21.737Z,88.42
2019-05-15T08:43:51.802Z,88.26
2019-05-15T08:46:21.900Z,87.89
2019-05-15T08:48:51.969Z,88.70
2019-05-15T08:51:22.087Z,88.47
2019-05-15T08:53:52.127Z,88.21
2019-05-15T08:56:22.228Z,87.76
2019-05-15T08:58:52.304Z,88.19
2019-05-15T09:01:22.395Z,87.65
2019-05-15T09:03:52.460Z,87.70
2019-05-15T09:06:23.268Z,88.03
2019-05-15T09:08:53.547Z,88.23
2019-05-15T09:11:23.657Z,88.14
2019-05-15T09:13:54.591Z,87.75
2019-05-15T09:16:24.941Z,87.81
2019-05-15T09:18:55.007Z,87.89
2019-05-15T09:21:25.100Z,87.69
2019-05-15T09:23:55.166Z,87.20
2019-05-15T09:26:25.261Z,87.59
2019-05-15T09:28:55.345Z,87.77
2019-05-15T09:31:25.453Z,88.09
2019-05-15T09:33:55.532Z,87.88
2019-05-15T09:36:25.726Z,87.19
2019-05-15T09:38:58.339Z,87.57
2019-05-15T09:41:28.662Z,87.15
2019-05-15T09:43:58.929Z,87.46
2019-05-15T09:46:29.280Z,86.87
2019-05-15T09:48:59.846Z,86.73
2019-05-15T09:51:29.928Z,86.84
2019-05-15T09:53:59.995Z,86.62
2019-05-15T09:56:30.115Z,86.97
2019-05-15T09:59:00.180Z,86.77
2019-05-15T10:01:30.264Z,86.64
2019-05-15T10:04:00.343Z,86.21
2019-05-15T10:06:30.749Z,86.35
2019-05-15T10:09:00.916Z,86.54
2019-05-15T10:11:31.013Z,86.64
2019-05-15T10:14:01.095Z,86.28
2019-05-15T10:16:31.551Z,86.27
2019-05-15T10:19:01.633Z,86.59
2019-05-15T10:21:32.705Z,86.65
2019-05-15T10:24:02.780Z,85.78
2019-05-15T10:26:32.936Z,85.83
2019-05-15T10:29:03.515Z,86.19
2019-05-15T10:31:33.612Z,86.48
2019-05-15T10:34:03.985Z,86.62
2019-05-15T10:36:34.094Z,86.08
2019-05-15T10:39:08.350Z,86.33
2019-05-15T10:41:38.793Z,86.44
2019-05-15T10:44:09.394Z,86.06
2019-05-15T10:46:39.574Z,86.24
2019-05-15T10:49:09.617Z,85.57
2019-05-15T10:51:39.910Z,85.75
2019-05-15T10:54:09.929Z,85.29
2019-05-15T10:56:40.015Z,85.70
2019-05-15T10:59:10.053Z,85.09
2019-05-15T11:01:40.118Z,85.75
2019-05-15T11:04:10.191Z,85.62
2019-05-15T11:06:40.293Z,84.91
2019-05-15T11:09:10.368Z,85.05
2019-05-15T11:11:40.474Z,85.07
2019-05-15T11:14:10.552Z,85.19
2019-05-15T11:16:40.757Z,85.04
2019-05-15T11:19:10.822Z,84.83
2019-05-15T11:21:43.501Z,84.99
2019-05-15T11:24:12.704Z,84.77
2019-05-15T11:26:42.796Z,85.21
2019-05-15T11:29:12.859Z,85.72
2019-05-15T11:31:42.965Z,85.26
2019-05-15T11:34:13.039Z,85.21
2019-05-15T11:36:43.136Z,84.75
2019-05-15T11:39:13.210Z,84.69
2019-05-15T11:41:43.307Z,84.66
2019-05-15T11:44:13.379Z,85.15
2019-05-15T11:46:43.601Z,85.14
2019-05-15T11:49:13.689Z,84.59
2019-05-15T11:51:43.785Z,84.80
2019-05-15T11:54:13.865Z,84.68
2019-05-15T11:56:43.954Z,84.34
2019-05-15T11:59:14.035Z,84.22
2019-05-15T12:01:44.213Z,83.90
2019-05-15T12:04:26.635Z,83.72
2019-05-15T12:06:58.291Z,84.40
2019-05-15T12:09:18.729Z,83.25
2019-05-15T12:11:49.022Z,83.52
2019-05-15T12:14:19.744Z,83.73
2019-05-15T12:17:05.171Z,83.01
2019-05-15T12:19:21.687Z,83.22
2019-05-15T12:21:51.783Z,83.52
2019-05-15T12:24:21.815Z,83.05
2019-05-15T12:26:51.916Z,82.57
2019-05-15T12:29:21.957Z,82.17
2019-05-15T12:31:52.108Z,82.99
2019-05-15T12:34:22.146Z,82.90
2019-05-15T12:36:57.674Z,82.02
2019-05-15T12:39:29.525Z,82.26
2019-05-15T13:02:08.627Z,82.34
2019-05-15T13:04:39.072Z,81.65
2019-05-15T13:07:13.827Z,82.07
2019-05-15T13:09:40.948Z,82.22
2019-05-15T13:12:11.033Z,82.09
2019-05-15T13:14:41.082Z,82.27
2019-05-15T13:17:11.564Z,81.49
2019-05-15T13:19:41.594Z,81.70
2019-05-15T13:22:19.004Z,81.54
2019-05-15T13:24:43.443Z,81.33
2019-05-15T13:27:13.617Z,81.20
2019-05-15T13:29:44.090Z,81.49
2019-05-15T13:32:14.191Z,81.66
2019-05-15T13:34:44.225Z,80.74
2019-05-15T13:37:26.334Z,81.00
2019-05-15T13:39:48.388Z,81.00
2019-05-15T13:42:18.176Z,80.88
2019-05-15T13:44:48.181Z,80.23
2019-05-15T13:47:18.289Z,80.47
2019-05-15T13:49:48.441Z,80.19
2019-05-15T13:52:18.879Z,79.21
2019-05-15T13:54:48.969Z,78.96
2019-05-15T13:57:19.085Z,79.05
2019-05-15T13:59:49.121Z,78.75
2019-05-15T14:02:19.239Z,78.07
2019-05-15T14:04:49.346Z,77.90
2019-05-15T14:07:19.463Z,77.32
2019-05-15T14:09:49.794Z,77.47
2019-05-15T14:12:19.889Z,77.93
2019-05-15T14:14:49.935Z,77.37
2019-05-15T14:17:20.041Z,77.72
2019-05-15T14:19:50.084Z,77.09
2019-05-15T14:22:20.478Z,77.58
2019-05-15T14:24:50.527Z,77.17
2019-05-15T14:27:20.633Z,76.52
2019-05-15T14:29:50.874Z,77.69
2019-05-15T14:32:34.466Z,77.02
2019-05-15T14:34:52.708Z,76.72
2019-05-15T14:37:22.840Z,76.30
2019-05-15T14:39:52.866Z,76.49
2019-05-15T14:42:22.984Z,76.21
2019-05-15T14:44:53.400Z,76.05
2019-05-15T14:47:26.265Z,76.45
2019-05-15T14:49:55.225Z,75.68
2019-05-15T14:52:25.323Z,75.75
2019-05-15T14:54:55.409Z,75.99
2019-05-15T14:57:25.708Z,76.41
2019-05-15T14:59:57.888Z,76.78
2019-05-15T15:02:27.589Z,76.70
2019-05-15T15:04:59.467Z,76.19
2019-05-15T15:07:29.453Z,76.21
2019-05-15T15:09:59.524Z,76.19
2019-05-15T15:12:29.630Z,75.30
2019-05-15T15:14:59.696Z,75.60
2019-05-15T15:17:29.818Z,75.33
2019-05-15T15:20:00.307Z,74.68
2019-05-15T15:22:30.702Z,73.29
2019-05-15T15:25:01.062Z,73.05
2019-05-15T15:27:31.192Z,73.40
2019-05-15T15:30:01.467Z,74.24
2019-05-15T15:32:31.582Z,73.12
2019-05-15T15:35:01.742Z,73.43
2019-05-15T15:37:31.849Z,72.94
2019-05-15T15:40:01.936Z,74.01
2019-05-15T15:42:32.037Z,73.84
2019-05-15T15:45:02.185Z,74.07
2019-05-15T15:47:32.409Z,73.30
2019-05-15T15:50:02.545Z,73.22
2019-05-15T15:52:32.640Z,73.32
2019-05-15T15:55:02.735Z,73.22
2019-05-15T15:57:32.968Z,72.93
2019-05-15T16:00:03.579Z,72.82
2019-05-15T16:02:33.680Z,73.02
2019-05-15T16:05:04.360Z,72.23
2019-05-15T16:07:34.644Z,73.09
2019-05-15T16:10:05.128Z,73.12
2019-05-15T16:12:35.316Z,73.72
2019-05-15T16:15:09.754Z,72.14
2019-05-15T16:17:40.079Z,71.97
2019-05-15T16:20:11.153Z,72.79
2019-05-15T16:22:43.118Z,72.52
2019-05-15T16:25:13.240Z,72.71
2019-05-15T16:27:43.436Z,72.72
2019-05-15T16:30:13.707Z,72.22
2019-05-15T16:32:43.811Z,72.51
2019-05-15T16:35:14.970Z,72.50
2019-05-15T16:37:45.096Z,72.64
2019-05-15T16:40:15.289Z,73.12
2019-05-15T16:42:45.413Z,73.07
2019-05-15T16:45:15.535Z,72.79
2019-05-15T16:47:47.891Z,72.59
2019-05-15T16:50:18.257Z,72.54
2019-05-15T16:52:49.179Z,72.73
2019-05-15T16:55:20.187Z,73.08
2019-05-15T16:57:50.600Z,72.07
2019-05-15T17:00:20.791Z,71.76
2019-05-15T17:03:08.242Z,70.79
2019-05-15T17:05:23.845Z,68.15
2019-05-15T17:07:54.030Z,69.21
2019-05-15T17:10:24.147Z,70.84
2019-05-15T17:12:54.265Z,71.18
2019-05-15T17:15:24.403Z,72.24
2019-05-15T17:17:54.584Z,71.13
2019-05-15T17:20:24.673Z,74.00
2019-05-15T17:22:54.765Z,74.28
2019-05-15T17:25:25.796Z,75.18
2019-05-15T17:27:58.419Z,75.38
2019-05-15T17:30:29.168Z,76.48
2019-05-15T17:33:02.183Z,76.84
2019-05-15T17:35:32.317Z,78.05
2019-05-15T17:38:02.867Z,77.68
2019-05-15T17:40:33.088Z,78.58
2019-05-15T17:43:04.768Z,80.19
2019-05-15T17:45:38.971Z,80.30
2019-05-15T17:48:11.786Z,81.23
2019-05-15T17:50:48.678Z,81.56
2019-05-15T17:53:14.201Z,82.08
2019-05-15T17:55:47.903Z,83.35
2019-05-15T17:58:19.732Z,84.87
2019-05-15T18:00:50.569Z,84.43
2019-05-15T18:03:31.451Z,85.15
2019-05-15T18:06:01.663Z,86.06
2019-05-15T18:08:33.081Z,87.09
2019-05-15T18:11:03.265Z,87.24
2019-05-15T18:13:33.387Z,87.87
2019-05-15T18:16:05.421Z,88.72
2019-05-15T18:18:35.820Z,88.52
2019-05-15T18:21:08.781Z,88.28
2019-05-15T18:23:39.236Z,89.04
2019-05-15T18:26:11.285Z,88.06
2019-05-15T18:28:42.119Z,88.37
2019-05-15T18:31:12.847Z,87.96
2019-05-15T18:33:53.368Z,88.17
2019-05-15T18:36:16.232Z,87.82
2019-05-15T18:38:48.273Z,87.21
2019-05-15T18:41:19.590Z,88.82
2019-05-15T18:43:50.646Z,88.88
2019-05-15T18:46:24.035Z,88.93
2019-05-15T18:48:57.919Z,89.38
2019-05-15T18:51:28.595Z,89.35
2019-05-15T18:54:03.354Z,89.44
2019-05-15T18:56:38.594Z,90.17
2019-05-15T18:59:13.399Z,90.59
2019-05-15T19:01:47.988Z,90.76
2019-05-15T19:04:19.865Z,91.11
2019-05-15T19:06:50.148Z,91.15
2019-05-15T19:09:21.185Z,91.75
2019-05-15T19:11:51.530Z,91.20
2019-05-15T19:14:21.747Z,91.21
2019-05-15T19:16:52.410Z,90.74
2019-05-15T19:19:33.861Z,91.06
2019-05-15T19:22:07.873Z,91.36
2019-05-15T19:24:40.200Z,91.77
2019-05-15T19:27:18.678Z,92.01
2019-05-15T19:29:50.672Z,92.11
2019-05-15T19:32:21.142Z,91.97
2019-05-15T19:34:51.247Z,92.01
2019-05-15T19:37:21.392Z,92.33
2019-05-15T19:39:51.507Z,92.35
2019-05-15T19:42:21.623Z,92.76
2019-05-15T19:44:51.884Z,92.78
2019-05-15T19:47:23.446Z,93.14
2019-05-15T19:49:53.808Z,93.08
2019-05-15T19:52:24.035Z,93.02
2019-05-15T19:54:54.201Z,93.22
2019-05-15T19:57:29.563Z,93.38
2019-05-15T20:00:25.467Z,93.02
2019-05-15T20:02:38.054Z,93.19
2019-05-15T20:05:12.146Z,93.85
2019-05-15T20:07:45.385Z,93.61
2019-05-15T20:10:18.664Z,93.79
2019-05-15T20:12:53.624Z,94.17
2019-05-15T20:15:28.521Z,94.35
2019-05-15T20:18:05.054Z,94.34
2019-05-15T20:20:40.572Z,94.85
2019-05-15T20:23:11.748Z,94.62
2019-05-15T20:25:42.929Z,94.53
2019-05-15T20:28:24.394Z,94.45
2019-05-15T20:31:20.250Z,94.40
2019-05-15T20:34:04.960Z,94.22
2019-05-15T20:36:29.721Z,94.32
2019-05-15T20:39:03.631Z,94.09
2019-05-15T20:41:48.612Z,94.26
2019-05-15T20:44:19.143Z,94.15
2019-05-15T20:47:00.559Z,94.29
2019-05-15T20:49:28.523Z,94.43
2019-05-15T20:52:14.766Z,94.53
2019-05-15T20:54:49.903Z,94.64
2019-05-15T20:57:28.234Z,94.53
2019-05-15T21:00:10.851Z,94.60
2019-05-15T21:02:42.582Z,94.95
2019-05-15T21:05:14.238Z,94.81
2019-05-15T21:07:44.326Z,95.00
2019-05-15T21:10:15.393Z,95.11
2019-05-15T21:12:48.627Z,95.20
2019-05-15T21:15:21.360Z,95.32
2019-05-15T21:18:10.872Z,95.46
2019-05-15T21:20:22.810Z,95.59
2019-05-15T21:22:53.010Z,95.59
2019-05-15T21:25:23.594Z,95.79
2019-05-15T21:27:53.674Z,95.42
2019-05-15T21:30:23.801Z,95.39
2019-05-15T21:32:53.893Z,95.14
2019-05-15T21:35:23.927Z,95.64
2019-05-15T21:37:54.142Z,95.65
2019-05-15T21:40:24.175Z,95.39
2019-05-15T21:42:54.274Z,95.39
2019-05-15T21:45:24.315Z,95.43
2019-05-15T21:47:54.455Z,95.77
2019-05-15T21:50:24.478Z,95.65
2019-05-15T21:52:54.581Z,95.56
2019-05-15T21:55:24.627Z,95.74
2019-05-15T21:57:54.903Z,95.73
2019-05-15T22:00:32.410Z,96.00
2019-05-15T22:03:02.584Z,95.91
2019-05-15T22:05:32.740Z,95.75
2019-05-15T22:08:02.931Z,95.49
2019-05-15T22:10:32.960Z,95.71
2019-05-15T22:13:04.266Z,95.69
2019-05-15T22:15:34.402Z,95.49
2019-05-15T22:18:05.523Z,95.44
2019-05-15T22:20:35.542Z,95.54
2019-05-15T22:23:08.074Z,95.66
2019-05-15T22:25:38.560Z,95.63
2019-05-15T22:28:08.994Z,95.28
2019-05-15T22:30:39.640Z,95.39
2019-05-15T22:33:09.745Z,95.34
2019-05-15T22:35:40.043Z,95.19
2019-05-15T22:38:10.238Z,95.18
2019-05-15T22:40:40.783Z,95.36
2019-05-15T22:43:10.955Z,95.21
2019-05-15T22:45:40.989Z,95.43
2019-05-15T22:48:11.092Z,95.59
2019-05-15T22:50:41.162Z,95.83
2019-05-15T22:53:11.240Z,95.64
2019-05-15T22:55:41.269Z,95.82
2019-05-15T22:58:11.653Z,95.95
2019-05-15T23:00:41.741Z,95.97
2019-05-15T23:03:11.836Z,96.14
2019-05-15T23:05:41.914Z,96.13
2019-05-15T23:08:12.015Z,96.28
2019-05-15T23:10:42.283Z,96.31
2019-05-15T23:13:12.659Z,96.50
2019-05-15T23:15:42.727Z,96.61
2019-05-15T23:18:12.812Z,96.60
2019-05-15T23:20:42.879Z,96.58
2019-05-15T23:23:12.976Z,96.60
2019-05-15T23:25:43.040Z,96.67
2019-05-15T23:28:13.154Z,96.69
2019-05-15T23:30:43.332Z,96.78
2019-05-15T23:33:13.426Z,96.89
2019-05-15T23:35:43.520Z,97.12
2019-05-15T23:38:13.594Z,97.22
2019-05-15T23:40:43.671Z,97.28
2019-05-15T23:43:13.861Z,97.30
2019-05-15T23:45:43.930Z,97.25
2019-05-15T23:48:14.035Z,97.19
2019-05-15T23:50:44.103Z,97.22
2019-05-15T23:53:16.543Z,97.23
2019-05-15T23:55:45.956Z,97.13
2019-05-15T23:58:18.678Z,97.14
